Time;durP1;ratioP1;P1;durP2;ratioP2;P2;SDS_P1;SDS_P2;PMS_P1;PMS_P2;Temp;Humidity;BMP_temperature;BMP_pressure;BME280_temperature;BME280_humidity;BME280_pressure;Samples;Min_cycle;Max_cycle;Signal;HPM_P1;HPM_P2
2022/03/07 00:00:15;;;;;;;71.53;41.75;;;;;;;;;;5074256;28;20031;-68
2022/03/07 00:02:41;;;;;;;66.65;40.05;;;;;;;;;;5074225;28;20024;-68
2022/03/07 00:05:07;;;;;;;71.72;39.33;;;;;;;;;;5074410;28;20111;-68
2022/03/07 00:07:33;;;;;;;66.93;37.35;;;;;;;;;;5074098;28;20094;-67
2022/03/07 00:10:00;;;;;;;69.28;40.97;;;;;;;;;;5074052;28;20029;-67
2022/03/07 00:12:26;;;;;;;66.72;38.00;;;;;;;;;;5073997;28;20029;-67
2022/03/07 00:14:52;;;;;;;67.68;40.72;;;;;;;;;;5073978;28;20064;-68
2022/03/07 00:17:18;;;;;;;72.75;41.83;;;;;;;;;;5055172;28;20060;-66
2022/03/07 00:19:44;;;;;;;63.97;37.75;;;;;;;;;;5073817;28;20086;-69
2022/03/07 00:22:11;;;;;;;60.25;35.47;;;;;;;;;;5073854;28;20024;-68
2022/03/07 00:24:37;;;;;;;65.25;36.72;;;;;;;;;;5073772;28;20445;-67
2022/03/07 00:27:04;;;;;;;64.50;36.67;;;;;;;;;;5073750;28;20056;-67
2022/03/07 00:29:31;;;;;;;60.67;36.67;;;;;;;;;;5073747;28;20368;-67
2022/03/07 00:31:58;;;;;;;58.58;33.60;;;;;;;;;;5073641;28;20025;-67
2022/03/07 00:34:24;;;;;;;58.60;34.50;;;;;;;;;;5055694;28;20029;-67
2022/03/07 00:36:50;;;;;;;62.17;35.72;;;;;;;;;;5073627;28;20028;-66
2022/03/07 00:39:16;;;;;;;61.45;36.47;;;;;;;;;;5055568;28;20115;-66
2022/03/07 00:41:42;;;;;;;66.40;35.97;;;;;;;;;;5055560;28;20037;-67
2022/03/07 00:44:09;;;;;;;58.42;34.45;;;;;;;;;;5073456;28;20028;-67
2022/03/07 00:46:35;;;;;;;57.75;35.30;;;;;;;;;;5073364;28;20465;-68
2022/03/07 00:49:01;;;;;;;61.15;35.40;;;;;;;;;;5055167;28;20035;-68
2022/03/07 00:51:28;;;;;;;61.22;35.58;;;;;;;;;;5073619;28;20024;-67
2022/03/07 00:53:54;;;;;;;57.80;34.08;;;;;;;;;;5073314;28;20032;-67
2022/03/07 00:56:20;;;;;;;61.20;34.85;;;;;;;;;;5073325;28;20043;-67
2022/03/07 00:58:46;;;;;;;60.38;34.60;;;;;;;;;;5055002;28;20111;-67
2022/03/07 01:01:13;;;;;;;63.13;34.90;;;;;;;;;;5055216;28;20032;-67
2022/03/07 01:03:39;;;;;;;62.10;35.38;;;;;;;;;;5055224;28;20465;-67
2022/03/07 01:06:05;;;;;;;70.28;36.20;;;;;;;;;;5073181;28;20024;-67
2022/03/07 01:08:31;;;;;;;63.25;35.95;;;;;;;;;;5073063;28;20490;-67
2022/03/07 01:10:58;;;;;;;60.97;33.80;;;;;;;;;;5073087;28;20111;-67
2022/03/07 01:13:25;;;;;;;64.85;36.70;;;;;;;;;;5073100;28;20103;-67
2022/03/07 01:15:52;;;;;;;68.65;37.28;;;;;;;;;;5073062;28;20024;-67
2022/03/07 01:18:18;;;;;;;62.72;36.25;;;;;;;;;;5073127;28;20028;-67
2022/03/07 01:20:44;;;;;;;60.35;35.65;;;;;;;;;;5073002;28;20564;-68
2022/03/07 01:23:10;;;;;;;59.67;35.60;;;;;;;;;;5054993;28;20024;-67
2022/03/07 01:25:36;;;;;;;65.47;35.45;;;;;;;;;;5072904;28;20102;-67
2022/03/07 01:28:03;;;;;;;61.67;35.40;;;;;;;;;;5072634;28;20108;-67
2022/03/07 01:30:29;;;;;;;58.70;34.50;;;;;;;;;;5054895;28;20128;-67
2022/03/07 01:32:55;;;;;;;61.05;33.83;;;;;;;;;;5072867;28;20073;-67
2022/03/07 01:35:21;;;;;;;62.88;35.40;;;;;;;;;;5072533;28;20434;-67
2022/03/07 01:37:48;;;;;;;56.85;34.05;;;;;;;;;;5054857;28;20033;-68
2022/03/07 01:40:14;;;;;;;62.10;36.65;;;;;;;;;;5072839;28;20043;-68
2022/03/07 01:42:40;;;;;;;60.08;35.45;;;;;;;;;;5054770;28;20016;-69
2022/03/07 01:45:08;;;;;;;62.75;34.85;;;;;;;;;;5072790;28;20029;-68
2022/03/07 01:47:34;;;;;;;66.07;36.13;;;;;;;;;;5071776;28;20408;-67
2022/03/07 01:50:00;;;;;;;58.15;33.53;;;;;;;;;;5072772;28;20028;-67
2022/03/07 01:52:27;;;;;;;57.53;33.92;;;;;;;;;;5054642;28;20025;-67
2022/03/07 01:54:53;;;;;;;61.85;35.70;;;;;;;;;;5072677;28;20031;-67
2022/03/07 01:57:20;;;;;;;53.88;33.28;;;;;;;;;;5072994;28;20385;-68
2022/03/07 01:59:46;;;;;;;57.45;33.88;;;;;;;;;;5072273;28;20481;-67
2022/03/07 02:02:12;;;;;;;64.18;37.00;;;;;;;;;;5072632;28;20111;-68
2022/03/07 02:04:41;;;;;;;72.20;39.35;;;;;;;;;;5054501;28;20021;-68
2022/03/07 02:07:08;;;;;;;70.97;41.15;;;;;;;;;;5072532;28;20036;-68
2022/03/07 02:09:34;;;;;;;75.50;41.25;;;;;;;;;;5072528;28;20123;-68
2022/03/07 02:12:00;;;;;;;72.93;40.85;;;;;;;;;;5054498;28;20530;-69
2022/03/07 02:14:26;;;;;;;77.80;41.13;;;;;;;;;;5054480;28;20495;-69
2022/03/07 02:16:52;;;;;;;85.10;45.20;;;;;;;;;;5054485;28;20060;-69
2022/03/07 02:19:19;;;;;;;96.18;50.10;;;;;;;;;;5072473;28;20021;-69
2022/03/07 02:21:49;;;;;;;99.90;50.47;;;;;;;;;;5054385;28;20024;-68
2022/03/07 02:24:16;;;;;;;85.45;44.22;;;;;;;;;;5054451;28;20429;-68
2022/03/07 02:26:42;;;;;;;75.07;39.53;;;;;;;;;;5072294;28;20151;-68
2022/03/07 02:29:11;;;;;;;65.82;37.80;;;;;;;;;;5072367;28;20369;-68
2022/03/07 02:31:40;;;;;;;61.75;34.63;;;;;;;;;;5072383;28;20025;-68
2022/03/07 02:34:06;;;;;;;63.65;36.75;;;;;;;;;;5072285;28;20021;-68
2022/03/07 02:36:32;;;;;;;66.88;36.22;;;;;;;;;;5072285;28;20521;-68
2022/03/07 02:38:58;;;;;;;66.22;37.90;;;;;;;;;;5072325;28;20033;-67
2022/03/07 02:41:24;;;;;;;63.00;35.97;;;;;;;;;;5074725;28;20031;-67
2022/03/07 02:43:51;;;;;;;65.18;36.50;;;;;;;;;;5057775;28;20036;-69
2022/03/07 02:46:17;;;;;;;64.45;35.17;;;;;;;;;;5075742;28;20103;-69
2022/03/07 02:48:43;;;;;;;64.22;35.53;;;;;;;;;;5075707;28;20032;-69
2022/03/07 02:51:09;;;;;;;64.07;34.78;;;;;;;;;;5075685;28;20043;-69
2022/03/07 02:53:35;;;;;;;59.40;33.78;;;;;;;;;;5075606;28;20020;-69
2022/03/07 02:56:02;;;;;;;58.10;32.40;;;;;;;;;;5057506;28;20024;-69
2022/03/07 02:58:28;;;;;;;55.10;32.25;;;;;;;;;;5075599;28;20054;-70
2022/03/07 03:00:54;;;;;;;57.53;32.75;;;;;;;;;;5057456;28;20025;-71
2022/03/07 03:03:20;;;;;;;54.03;30.38;;;;;;;;;;5075415;28;20082;-70
2022/03/07 03:05:46;;;;;;;61.10;33.08;;;;;;;;;;5075377;28;20078;-70
2022/03/07 03:08:13;;;;;;;53.50;31.30;;;;;;;;;;5057299;28;20047;-69
2022/03/07 03:10:39;;;;;;;55.17;32.35;;;;;;;;;;5075302;28;20171;-70
2022/03/07 03:13:05;;;;;;;60.17;31.73;;;;;;;;;;5057224;28;20020;-71
2022/03/07 03:15:31;;;;;;;52.50;30.40;;;;;;;;;;5057196;28;20020;-71
2022/03/07 03:17:57;;;;;;;58.65;32.13;;;;;;;;;;5057173;28;20032;-71
2022/03/07 03:20:23;;;;;;;56.42;31.63;;;;;;;;;;5075121;28;20025;-70
2022/03/07 03:22:50;;;;;;;58.83;33.65;;;;;;;;;;5057034;28;20161;-70
2022/03/07 03:25:16;;;;;;;59.67;33.17;;;;;;;;;;5056793;28;20468;-71
2022/03/07 03:27:42;;;;;;;58.97;33.83;;;;;;;;;;5056893;28;20468;-71
2022/03/07 03:30:10;;;;;;;58.63;35.22;;;;;;;;;;5074914;28;20047;-72
2022/03/07 03:32:36;;;;;;;64.60;34.83;;;;;;;;;;5075145;28;20032;-71
2022/03/07 03:35:02;;;;;;;64.25;37.35;;;;;;;;;;5075077;28;20039;-70
2022/03/07 03:37:28;;;;;;;72.80;42.95;;;;;;;;;;5056810;28;20029;-69
2022/03/07 03:39:54;;;;;;;72.72;40.80;;;;;;;;;;5074730;28;20365;-70
2022/03/07 03:42:21;;;;;;;77.95;44.67;;;;;;;;;;5074660;28;20085;-69
2022/03/07 03:44:48;;;;;;;75.60;46.75;;;;;;;;;;5074685;28;20060;-67
2022/03/07 03:47:15;;;;;;;77.85;46.63;;;;;;;;;;5074464;28;20044;-67
2022/03/07 03:49:41;;;;;;;65.63;39.60;;;;;;;;;;5074628;28;20100;-70
2022/03/07 03:52:07;;;;;;;61.75;33.45;;;;;;;;;;5074061;28;20108;-70
2022/03/07 03:54:33;;;;;;;55.15;32.80;;;;;;;;;;5056444;28;20081;-69
2022/03/07 03:57:00;;;;;;;49.83;31.20;;;;;;;;;;5056378;28;20031;-69
2022/03/07 03:59:26;;;;;;;52.63;29.33;;;;;;;;;;5074098;28;20016;-69
2022/03/07 04:01:52;;;;;;;54.17;31.67;;;;;;;;;;5074536;28;20028;-68
2022/03/07 04:04:18;;;;;;;50.67;29.90;;;;;;;;;;5074216;28;20043;-68
2022/03/07 04:06:44;;;;;;;55.72;32.00;;;;;;;;;;5074105;28;20037;-69
2022/03/07 04:09:12;;;;;;;58.78;33.97;;;;;;;;;;5074179;28;20035;-68
2022/03/07 04:11:38;;;;;;;64.97;34.35;;;;;;;;;;5074297;28;20039;-68
2022/03/07 04:14:04;;;;;;;65.05;34.97;;;;;;;;;;5056045;28;20411;-69
2022/03/07 04:16:31;;;;;;;63.83;35.85;;;;;;;;;;5056073;28;20123;-68
2022/03/07 04:18:57;;;;;;;75.47;40.67;;;;;;;;;;5074237;28;20025;-70
2022/03/07 04:21:26;;;;;;;73.00;40.58;;;;;;;;;;5073908;28;20039;-69
2022/03/07 04:23:52;;;;;;;73.15;41.45;;;;;;;;;;5073842;28;20108;-70
2022/03/07 04:26:18;;;;;;;77.72;43.15;;;;;;;;;;5073425;28;20554;-68
2022/03/07 04:28:44;;;;;;;69.25;40.15;;;;;;;;;;5073699;28;20124;-69
2022/03/07 04:31:11;;;;;;;66.60;37.05;;;;;;;;;;5073694;28;20021;-70
2022/03/07 04:33:37;;;;;;;73.93;41.90;;;;;;;;;;5073663;28;20024;-69
2022/03/07 04:36:04;;;;;;;85.45;46.78;;;;;;;;;;5073324;28;20024;-69
2022/03/07 04:38:30;;;;;;;70.97;39.38;;;;;;;;;;5073673;28;20033;-70
2022/03/07 04:40:56;;;;;;;71.93;37.33;;;;;;;;;;5073517;28;20453;-70
2022/03/07 04:43:23;;;;;;;68.75;36.05;;;;;;;;;;5073478;28;20032;-70
2022/03/07 04:45:52;;;;;;;67.45;35.65;;;;;;;;;;5055468;28;20028;-68
2022/03/07 04:48:19;;;;;;;69.03;34.75;;;;;;;;;;5073400;28;20479;-68
2022/03/07 04:50:45;;;;;;;69.57;35.50;;;;;;;;;;5073436;28;20377;-68
2022/03/07 04:53:11;;;;;;;61.58;34.58;;;;;;;;;;5073338;28;20020;-68
2022/03/07 04:55:37;;;;;;;59.45;33.05;;;;;;;;;;5073070;28;20756;-69
2022/03/07 04:58:04;;;;;;;59.17;33.55;;;;;;;;;;5073337;28;20037;-68
2022/03/07 05:00:31;;;;;;;52.30;29.75;;;;;;;;;;5073245;28;20027;-68
2022/03/07 05:02:57;;;;;;;53.97;31.85;;;;;;;;;;5072746;28;20477;-67
2022/03/07 05:05:23;;;;;;;56.00;31.55;;;;;;;;;;5055173;28;20128;-68
2022/03/07 05:07:49;;;;;;;53.72;31.27;;;;;;;;;;5072779;28;20397;-70
2022/03/07 05:10:16;;;;;;;59.67;32.97;;;;;;;;;;5055084;28;20486;-70
2022/03/07 05:12:43;;;;;;;65.53;35.85;;;;;;;;;;5073102;28;20381;-70
2022/03/07 05:15:09;;;;;;;64.22;37.72;;;;;;;;;;5072735;28;20422;-68
2022/03/07 05:17:48;;;;;;;71.90;38.42;;;;;;;;;;5055031;28;20086;-68
2022/03/07 05:20:16;;;;;;;80.55;43.42;;;;;;;;;;5072978;28;20024;-68
2022/03/07 05:22:43;;;;;;;94.43;51.60;;;;;;;;;;5073292;28;20108;-67
2022/03/07 05:25:10;;;;;;;85.63;45.15;;;;;;;;;;5072605;28;20029;-68
2022/03/07 05:27:36;;;;;;;87.53;46.22;;;;;;;;;;5072856;28;20045;-68
2022/03/07 05:30:03;;;;;;;74.95;40.67;;;;;;;;;;5054867;28;20413;-68
2022/03/07 05:32:29;;;;;;;71.60;38.30;;;;;;;;;;5072516;28;20024;-68
2022/03/07 05:34:56;;;;;;;69.38;38.45;;;;;;;;;;5054782;28;20081;-69
2022/03/07 05:37:22;;;;;;;63.03;36.30;;;;;;;;;;5072804;28;20050;-68
2022/03/07 05:39:48;;;;;;;66.78;37.35;;;;;;;;;;5072425;28;20035;-67
2022/03/07 05:42:14;;;;;;;62.88;34.65;;;;;;;;;;5072682;28;20024;-68
2022/03/07 05:44:40;;;;;;;59.30;35.88;;;;;;;;;;5072973;28;20024;-68
2022/03/07 05:47:06;;;;;;;69.13;38.20;;;;;;;;;;5072309;28;20040;-67
2022/03/07 05:49:33;;;;;;;71.60;37.60;;;;;;;;;;5072444;28;20081;-68
2022/03/07 05:51:59;;;;;;;65.47;37.58;;;;;;;;;;5072356;28;20424;-68
2022/03/07 05:54:25;;;;;;;66.97;37.85;;;;;;;;;;5054619;28;20376;-70
2022/03/07 05:56:51;;;;;;;60.80;35.08;;;;;;;;;;5072868;28;20024;-70
2022/03/07 05:59:18;;;;;;;69.22;38.28;;;;;;;;;;5072239;28;20435;-70
2022/03/07 06:01:44;;;;;;;71.72;37.72;;;;;;;;;;5054509;28;20082;-69
2022/03/07 06:04:10;;;;;;;68.85;37.67;;;;;;;;;;5072510;28;20025;-69
2022/03/07 06:06:36;;;;;;;70.80;38.33;;;;;;;;;;5072191;28;20480;-69
2022/03/07 06:09:02;;;;;;;79.32;40.42;;;;;;;;;;5072504;28;20111;-68
2022/03/07 06:11:29;;;;;;;81.68;41.85;;;;;;;;;;5054525;28;20087;-69
2022/03/07 06:13:55;;;;;;;91.72;46.90;;;;;;;;;;5072194;28;20012;-69
2022/03/07 06:16:21;;;;;;;86.30;44.63;;;;;;;;;;5074966;28;20024;-69
2022/03/07 06:18:47;;;;;;;83.72;43.30;;;;;;;;;;5076204;28;20031;-68
2022/03/07 06:21:13;;;;;;;120.57;71.85;;;;;;;;;;5076127;28;20101;-68
2022/03/07 06:23:41;;;;;;;105.38;58.63;;;;;;;;;;5076031;28;20025;-67
2022/03/07 06:26:08;;;;;;;111.95;65.28;;;;;;;;;;5054376;28;20045;-68
2022/03/07 06:28:34;;;;;;;145.75;79.28;;;;;;;;;;5055982;28;20040;-68
2022/03/07 06:31:00;;;;;;;166.40;85.43;;;;;;;;;;5055984;28;20021;-67
2022/03/07 06:33:26;;;;;;;121.65;62.10;;;;;;;;;;5054545;28;20604;-68
2022/03/07 06:35:53;;;;;;;130.23;67.43;;;;;;;;;;5054395;28;20051;-69
2022/03/07 06:38:19;;;;;;;116.78;64.25;;;;;;;;;;5055785;28;20021;-67
2022/03/07 06:40:46;;;;;;;88.18;49.28;;;;;;;;;;5055797;28;20029;-68
2022/03/07 06:43:12;;;;;;;71.57;40.35;;;;;;;;;;5054413;28;20032;-67
2022/03/07 06:45:39;;;;;;;70.57;40.53;;;;;;;;;;5055524;28;20088;-67
2022/03/07 06:48:05;;;;;;;63.20;35.45;;;;;;;;;;5058007;28;20039;-67
2022/03/07 06:50:32;;;;;;;59.97;37.28;;;;;;;;;;5058188;28;20032;-67
2022/03/07 06:52:58;;;;;;;56.28;32.92;;;;;;;;;;5055737;28;20029;-67
2022/03/07 06:55:24;;;;;;;65.15;37.67;;;;;;;;;;5055401;28;20458;-67
2022/03/07 06:57:51;;;;;;;70.20;42.05;;;;;;;;;;5055380;28;20044;-68
2022/03/07 07:00:18;;;;;;;62.03;35.47;;;;;;;;;;5055431;28;20025;-67
2022/03/07 07:02:45;;;;;;;60.13;35.78;;;;;;;;;;5055320;28;20052;-67
2022/03/07 07:05:11;;;;;;;58.25;32.72;;;;;;;;;;5053877;28;20029;-67
2022/03/07 07:07:37;;;;;;;56.45;31.90;;;;;;;;;;5054065;28;20388;-69
2022/03/07 07:10:05;;;;;;;52.30;30.73;;;;;;;;;;5063201;28;20393;-67
2022/03/07 07:12:31;;;;;;;65.10;37.38;;;;;;;;;;5069691;28;20016;-67
2022/03/07 07:14:57;;;;;;;76.63;39.45;;;;;;;;;;5060746;28;20036;-67
2022/03/07 07:17:23;;;;;;;74.22;39.22;;;;;;;;;;5052476;28;20037;-67
2022/03/07 07:19:50;;;;;;;89.60;46.10;;;;;;;;;;5054061;28;20382;-67
2022/03/07 07:22:16;;;;;;;101.80;50.97;;;;;;;;;;5055309;28;20070;-67
2022/03/07 07:24:42;;;;;;;69.90;38.53;;;;;;;;;;5053989;28;20420;-67
2022/03/07 07:27:08;;;;;;;65.95;37.33;;;;;;;;;;5071420;28;20049;-67
2022/03/07 07:29:35;;;;;;;73.70;42.47;;;;;;;;;;5074633;28;20425;-67
2022/03/07 07:32:02;;;;;;;78.43;40.05;;;;;;;;;;5074825;28;20020;-67
2022/03/07 07:34:28;;;;;;;67.50;36.35;;;;;;;;;;5074682;28;20078;-67
2022/03/07 07:36:55;;;;;;;117.22;54.75;;;;;;;;;;5074940;28;20029;-67
2022/03/07 07:39:21;;;;;;;60.38;33.92;;;;;;;;;;5085685;28;20461;-67
2022/03/07 07:41:47;;;;;;;71.22;37.17;;;;;;;;;;5094898;28;20081;-68
2022/03/07 07:44:15;;;;;;;84.57;47.55;;;;;;;;;;5076569;28;20464;-68
2022/03/07 07:46:41;;;;;;;72.50;39.78;;;;;;;;;;5094641;28;20064;-65
2022/03/07 07:49:08;;;;;;;74.18;39.45;;;;;;;;;;5094630;28;20020;-66
2022/03/07 07:51:34;;;;;;;71.75;40.47;;;;;;;;;;5094701;28;20024;-65
2022/03/07 07:54:00;;;;;;;76.50;40.17;;;;;;;;;;5094629;28;20380;-65
2022/03/07 07:56:27;;;;;;;77.50;39.45;;;;;;;;;;5094514;28;20034;-68
2022/03/07 07:58:53;;;;;;;85.90;42.58;;;;;;;;;;5075707;28;20088;-66
2022/03/07 08:01:20;;;;;;;98.22;44.92;;;;;;;;;;5094348;28;20017;-65
2022/03/07 08:03:46;;;;;;;110.32;53.05;;;;;;;;;;5094254;28;20078;-67
2022/03/07 08:06:12;;;;;;;97.95;48.05;;;;;;;;;;5076102;28;20101;-66
2022/03/07 08:08:38;;;;;;;78.93;41.08;;;;;;;;;;5075946;28;20043;-67
2022/03/07 08:11:04;;;;;;;69.85;40.40;;;;;;;;;;5093846;28;20369;-70
2022/03/07 08:13:31;;;;;;;75.53;41.42;;;;;;;;;;5075897;28;20028;-68
2022/03/07 08:15:57;;;;;;;80.68;42.45;;;;;;;;;;5094047;28;20039;-67
2022/03/07 08:18:23;;;;;;;76.00;41.67;;;;;;;;;;5075809;28;20036;-66
2022/03/07 08:20:50;;;;;;;70.32;37.63;;;;;;;;;;5094086;28;20031;-67
2022/03/07 08:23:16;;;;;;;68.70;38.10;;;;;;;;;;5094070;28;20036;-68
2022/03/07 08:25:42;;;;;;;71.40;37.42;;;;;;;;;;5093787;28;20119;-70
2022/03/07 08:28:09;;;;;;;66.68;36.80;;;;;;;;;;5093887;28;20032;-67
2022/03/07 08:30:35;;;;;;;80.43;39.75;;;;;;;;;;5093721;28;20095;-68
2022/03/07 08:33:01;;;;;;;74.60;40.00;;;;;;;;;;5093762;28;20032;-67
2022/03/07 08:35:27;;;;;;;73.18;39.67;;;;;;;;;;5093681;28;20431;-69
2022/03/07 08:37:54;;;;;;;85.13;43.17;;;;;;;;;;5092617;28;20087;-67
2022/03/07 08:40:21;;;;;;;82.38;43.47;;;;;;;;;;5075475;28;20024;-69
2022/03/07 08:42:48;;;;;;;85.00;46.97;;;;;;;;;;5075344;28;20028;-68
2022/03/07 08:45:14;;;;;;;80.32;44.67;;;;;;;;;;5093382;28;20020;-70
2022/03/07 08:47:41;;;;;;;82.18;45.10;;;;;;;;;;5093516;28;20042;-70
2022/03/07 08:50:09;;;;;;;90.57;50.85;;;;;;;;;;5093448;28;20035;-69
2022/03/07 08:52:36;;;;;;;66.53;38.28;;;;;;;;;;5093327;28;20103;-70
2022/03/07 08:55:02;;;;;;;68.65;39.90;;;;;;;;;;5093528;28;20024;-70
2022/03/07 08:57:28;;;;;;;65.95;37.88;;;;;;;;;;5075085;28;20035;-69
2022/03/07 08:59:55;;;;;;;67.05;37.90;;;;;;;;;;5092916;28;20099;-69
2022/03/07 09:02:21;;;;;;;76.53;40.00;;;;;;;;;;5093234;28;20107;-68
2022/03/07 09:04:47;;;;;;;72.55;39.05;;;;;;;;;;5093261;28;20170;-69
2022/03/07 09:07:13;;;;;;;66.05;37.60;;;;;;;;;;5074830;28;20050;-69
2022/03/07 09:09:40;;;;;;;59.33;34.65;;;;;;;;;;5074847;28;20346;-70
2022/03/07 09:12:08;;;;;;;61.75;35.38;;;;;;;;;;5093085;28;20035;-70
2022/03/07 09:14:34;;;;;;;73.85;40.38;;;;;;;;;;5074891;28;20031;-69
2022/03/07 09:17:01;;;;;;;75.88;41.22;;;;;;;;;;5093099;28;20107;-69
2022/03/07 09:19:28;;;;;;;90.65;48.58;;;;;;;;;;5093021;28;20034;-69
2022/03/07 09:21:54;;;;;;;65.95;37.40;;;;;;;;;;5074861;28;20024;-67
2022/03/07 09:24:22;;;;;;;69.25;37.67;;;;;;;;;;5093096;28;20032;-68
2022/03/07 09:26:48;;;;;;;83.18;44.38;;;;;;;;;;5092480;28;20048;-67
2022/03/07 09:29:14;;;;;;;63.40;37.33;;;;;;;;;;5074745;28;20028;-69
2022/03/07 09:31:41;;;;;;;68.72;39.85;;;;;;;;;;5092906;28;20036;-71
2022/03/07 09:34:08;;;;;;;80.10;42.63;;;;;;;;;;5092802;28;20073;-69
2022/03/07 09:36:36;;;;;;;78.38;45.38;;;;;;;;;;5092878;28;20024;-69
2022/03/07 09:39:03;;;;;;;73.68;41.35;;;;;;;;;;5092899;28;20074;-69
2022/03/07 09:41:29;;;;;;;71.68;41.33;;;;;;;;;;5074648;28;20455;-68
2022/03/07 09:43:55;;;;;;;74.60;42.95;;;;;;;;;;5092714;28;20032;-70
2022/03/07 09:46:22;;;;;;;71.00;38.15;;;;;;;;;;5092757;28;20089;-71
2022/03/07 09:48:48;;;;;;;77.32;43.50;;;;;;;;;;5074595;28;20032;-72
2022/03/07 09:51:14;;;;;;;62.80;36.30;;;;;;;;;;5078550;28;20430;-68
2022/03/07 09:53:41;;;;;;;66.55;38.63;;;;;;;;;;5096891;28;20026;-68
2022/03/07 09:56:07;;;;;;;64.10;38.13;;;;;;;;;;5096784;28;20031;-68
2022/03/07 09:58:33;;;;;;;65.82;38.35;;;;;;;;;;5096763;28;20040;-68
2022/03/07 10:01:07;;;;;;;63.60;37.78;;;;;;;;;;5097084;28;20032;-68
2022/03/07 10:03:33;;;;;;;81.30;45.70;;;;;;;;;;5096596;28;20134;-68
2022/03/07 10:05:59;;;;;;;77.32;39.30;;;;;;;;;;5096592;28;20089;-68
2022/03/07 10:08:26;;;;;;;66.57;37.47;;;;;;;;;;5096623;28;20027;-67
2022/03/07 10:10:53;;;;;;;96.55;49.33;;;;;;;;;;5078495;28;20401;-68
2022/03/07 10:13:20;;;;;;;63.40;37.35;;;;;;;;;;5078384;28;20384;-68
2022/03/07 10:15:54;;;;;;;60.20;33.22;;;;;;;;;;5096495;28;20027;-67
2022/03/07 10:18:20;;;;;;;65.53;37.00;;;;;;;;;;5096827;28;20027;-70
2022/03/07 10:20:51;;;;;;;99.88;49.42;;;;;;;;;;5078220;28;20021;-69
2022/03/07 10:23:17;;;;;;;60.10;35.40;;;;;;;;;;5096402;28;20112;-70
2022/03/07 10:25:44;;;;;;;61.92;35.45;;;;;;;;;;5096152;28;20060;-71
2022/03/07 10:28:11;;;;;;;73.20;41.90;;;;;;;;;;5077822;28;20039;-68
2022/03/07 10:30:38;;;;;;;57.90;33.55;;;;;;;;;;5095927;28;20089;-66
2022/03/07 10:33:06;;;;;;;51.10;30.48;;;;;;;;;;5095866;28;20020;-66
2022/03/07 10:35:41;;;;;;;64.13;40.60;;;;;;;;;;5096111;28;20479;-67
2022/03/07 10:38:17;;;;;;;56.40;33.75;;;;;;;;;;5095851;28;20495;-67
2022/03/07 10:40:52;;;;;;;61.67;36.72;;;;;;;;;;5077807;28;20024;-66
2022/03/07 10:43:18;;;;;;;67.80;38.25;;;;;;;;;;5095761;28;20350;-68
2022/03/07 10:45:49;;;;;;;60.33;33.20;;;;;;;;;;5096243;28;20469;-67
2022/03/07 10:48:15;;;;;;;57.47;34.10;;;;;;;;;;5096106;28;20081;-66
2022/03/07 10:50:49;;;;;;;164.10;74.22;;;;;;;;;;5095655;28;20028;-65
2022/03/07 10:53:16;;;;;;;51.78;31.58;;;;;;;;;;5076700;28;20028;-64
2022/03/07 10:55:50;;;;;;;49.38;30.27;;;;;;;;;;5095859;28;20107;-67
2022/03/07 10:58:16;;;;;;;58.50;31.23;;;;;;;;;;5095395;28;20028;-67
2022/03/07 11:00:49;;;;;;;54.35;31.30;;;;;;;;;;5095022;28;20025;-67
2022/03/07 11:03:16;;;;;;;56.92;33.65;;;;;;;;;;5095783;28;20024;-67
2022/03/07 11:05:42;;;;;;;55.92;32.95;;;;;;;;;;5095710;28;20028;-66
2022/03/07 11:08:08;;;;;;;55.28;31.17;;;;;;;;;;5095554;28;20028;-68
2022/03/07 11:10:36;;;;;;;53.88;30.27;;;;;;;;;;5071108;28;20059;-67
2022/03/07 11:13:03;;;;;;;51.53;29.98;;;;;;;;;;5075233;28;20029;-68
2022/03/07 11:15:29;;;;;;;48.92;29.30;;;;;;;;;;5075213;28;20021;-66
2022/03/07 11:17:56;;;;;;;47.20;28.20;;;;;;;;;;5057437;28;20435;-66
2022/03/07 11:20:22;;;;;;;61.05;36.00;;;;;;;;;;5057065;28;20051;-67
2022/03/07 11:22:48;;;;;;;55.40;32.30;;;;;;;;;;5075102;28;20032;-65
2022/03/07 11:25:16;;;;;;;52.67;31.42;;;;;;;;;;5074633;28;20469;-67
2022/03/07 11:27:42;;;;;;;54.95;29.05;;;;;;;;;;5074914;28;20031;-69
2022/03/07 11:30:16;;;;;;;49.50;30.40;;;;;;;;;;5074622;28;20032;-70
2022/03/07 11:32:42;;;;;;;52.58;30.45;;;;;;;;;;5074590;28;20543;-67
2022/03/07 11:35:09;;;;;;;57.17;33.20;;;;;;;;;;5074791;28;20115;-65
2022/03/07 11:37:35;;;;;;;64.82;38.80;;;;;;;;;;5074658;28;20036;-69
2022/03/07 11:40:02;;;;;;;58.67;33.38;;;;;;;;;;5074628;28;20027;-65
2022/03/07 11:42:36;;;;;;;56.60;31.90;;;;;;;;;;5074654;28;20461;-65
2022/03/07 11:45:09;;;;;;;52.33;30.75;;;;;;;;;;5074253;28;20456;-67
2022/03/07 11:47:36;;;;;;;57.60;33.55;;;;;;;;;;5074353;28;20029;-65
2022/03/07 11:50:03;;;;;;;51.17;31.13;;;;;;;;;;5074271;28;20033;-67
2022/03/07 11:52:29;;;;;;;63.50;37.17;;;;;;;;;;5074756;28;20111;-65
2022/03/07 11:54:56;;;;;;;55.38;33.50;;;;;;;;;;5074667;28;20021;-65
2022/03/07 11:57:33;;;;;;;53.38;32.53;;;;;;;;;;5074582;28;20021;-67
2022/03/07 12:00:09;;;;;;;59.92;35.13;;;;;;;;;;5074207;28;20075;-64
2022/03/07 12:02:42;;;;;;;60.58;34.25;;;;;;;;;;5074521;28;20028;-67
2022/03/07 12:05:19;;;;;;;55.13;32.83;;;;;;;;;;5074111;28;20021;-67
2022/03/07 12:07:45;;;;;;;60.17;33.85;;;;;;;;;;5074017;28;20028;-65
2022/03/07 12:10:12;;;;;;;60.80;33.85;;;;;;;;;;5073765;28;20526;-65
2022/03/07 12:12:38;;;;;;;53.83;31.92;;;;;;;;;;5073988;28;20112;-65
2022/03/07 12:15:08;;;;;;;61.33;35.17;;;;;;;;;;5056026;28;20602;-65
2022/03/07 12:17:34;;;;;;;53.33;32.83;;;;;;;;;;5073909;28;20039;-67
2022/03/07 12:20:00;;;;;;;59.42;33.97;;;;;;;;;;5073887;28;20063;-66
2022/03/07 12:22:28;;;;;;;58.08;34.45;;;;;;;;;;5073865;28;20029;-66
2022/03/07 12:24:57;;;;;;;52.83;31.77;;;;;;;;;;5073716;28;20024;-65
2022/03/07 12:27:23;;;;;;;57.53;33.88;;;;;;;;;;5072993;28;20062;-66
2022/03/07 12:29:51;;;;;;;53.92;31.95;;;;;;;;;;5073335;28;20381;-65
2022/03/07 12:32:19;;;;;;;65.03;33.08;;;;;;;;;;5073576;28;20021;-66
2022/03/07 12:34:45;;;;;;;49.17;30.17;;;;;;;;;;5073569;28;20021;-66
2022/03/07 12:37:17;;;;;;;55.63;31.65;;;;;;;;;;5073853;28;20040;-66
2022/03/07 12:39:51;;;;;;;55.80;32.92;;;;;;;;;;5055580;28;20515;-66
2022/03/07 12:42:18;;;;;;;48.45;30.38;;;;;;;;;;5055641;28;20024;-66
2022/03/07 12:45:12;;;;;;;48.20;29.73;;;;;;;;;;5073440;28;20021;-66
2022/03/07 12:47:39;;;;;;;51.58;30.95;;;;;;;;;;5073232;28;20488;-66
2022/03/07 12:50:07;;;;;;;54.22;31.75;;;;;;;;;;5073408;28;20055;-65
2022/03/07 12:52:34;;;;;;;48.90;29.35;;;;;;;;;;5073292;28;20170;-65
2022/03/07 12:55:01;;;;;;;58.60;33.72;;;;;;;;;;5073507;28;20024;-66
2022/03/07 12:57:28;;;;;;;51.35;30.35;;;;;;;;;;5072997;28;20418;-65
2022/03/07 13:00:06;;;;;;;53.83;29.85;;;;;;;;;;5073023;28;20048;-65
2022/03/07 13:02:33;;;;;;;51.10;31.20;;;;;;;;;;5055253;28;20056;-66
2022/03/07 13:04:59;;;;;;;55.40;33.30;;;;;;;;;;5073079;28;20032;-65
2022/03/07 13:07:25;;;;;;;52.70;31.38;;;;;;;;;;5072985;28;20041;-66
2022/03/07 13:09:52;;;;;;;57.75;30.40;;;;;;;;;;5072961;28;20021;-67
2022/03/07 13:12:18;;;;;;;50.50;30.00;;;;;;;;;;5055174;28;20133;-66
2022/03/07 13:14:44;;;;;;;50.65;31.70;;;;;;;;;;5073214;28;20027;-67
2022/03/07 13:17:12;;;;;;;53.03;33.08;;;;;;;;;;5073259;28;20389;-65
2022/03/07 13:19:42;;;;;;;56.50;33.45;;;;;;;;;;5054950;28;20035;-65
2022/03/07 13:22:09;;;;;;;50.55;30.95;;;;;;;;;;5072861;28;20031;-65
2022/03/07 13:24:35;;;;;;;60.28;31.95;;;;;;;;;;5072686;28;20473;-67
2022/03/07 13:27:12;;;;;;;66.07;32.58;;;;;;;;;;5072813;28;20051;-66
2022/03/07 13:29:41;;;;;;;57.35;33.17;;;;;;;;;;5072959;28;20036;-66
2022/03/07 13:32:09;;;;;;;55.08;32.53;;;;;;;;;;5072811;28;20021;-66
2022/03/07 13:34:44;;;;;;;55.45;31.17;;;;;;;;;;5072849;28;20538;-66
2022/03/07 13:37:11;;;;;;;52.70;30.98;;;;;;;;;;5072859;28;20052;-66
2022/03/07 13:39:38;;;;;;;51.55;29.88;;;;;;;;;;5072830;28;20039;-66
2022/03/07 13:42:14;;;;;;;54.65;31.35;;;;;;;;;;5072785;28;20028;-66
2022/03/07 13:44:51;;;;;;;57.60;32.50;;;;;;;;;;5072800;28;20031;-66
2022/03/07 13:47:20;;;;;;;52.25;30.83;;;;;;;;;;5072661;28;20086;-66
2022/03/07 13:49:50;;;;;;;54.63;32.20;;;;;;;;;;5072602;28;20081;-66
2022/03/07 13:52:18;;;;;;;52.17;31.27;;;;;;;;;;5072747;28;20089;-66
2022/03/07 13:54:45;;;;;;;63.08;40.60;;;;;;;;;;5054610;28;20389;-66
2022/03/07 13:57:11;;;;;;;54.53;32.97;;;;;;;;;;5072523;28;20177;-65
2022/03/07 13:59:38;;;;;;;61.13;34.50;;;;;;;;;;5054430;28;20029;-66
2022/03/07 14:02:14;;;;;;;66.53;37.95;;;;;;;;;;5054421;28;20381;-66
2022/03/07 14:04:50;;;;;;;63.15;37.15;;;;;;;;;;5072290;28;20394;-66
2022/03/07 14:07:19;;;;;;;69.13;38.88;;;;;;;;;;5072734;28;20358;-66
2022/03/07 14:09:56;;;;;;;60.40;35.75;;;;;;;;;;5072427;28;20107;-66
2022/03/07 14:12:26;;;;;;;67.50;38.17;;;;;;;;;;5072450;28;20032;-66
2022/03/07 14:15:00;;;;;;;70.15;38.95;;;;;;;;;;5054444;28;20028;-66